createdAt,value
2016-03-18T00:00:29.350Z,4.63
2016-03-18T00:01:29.227Z,4.78
2016-03-18T00:02:29.215Z,4.68
2016-03-18T00:03:29.154Z,4.71
2016-03-18T00:04:29.110Z,4.63
2016-03-18T00:05:29.034Z,4.63
2016-03-18T00:06:28.981Z,4.6
2016-03-18T00:07:28.905Z,4.62
2016-03-18T00:08:28.831Z,4.58
2016-03-18T00:09:28.833Z,4.66
2016-03-18T00:10:28.725Z,4.58
2016-03-18T00:11:28.667Z,4.56
2016-03-18T00:12:28.637Z,4.52
2016-03-18T00:13:28.547Z,4.52
2016-03-18T00:14:28.502Z,4.41
2016-03-18T00:15:28.505Z,4.44
2016-03-18T00:16:28.383Z,4.52
2016-03-18T00:17:28.339Z,4.48
2016-03-18T00:18:28.357Z,4.45
2016-03-18T00:19:28.187Z,4.4
2016-03-18T00:20:28.128Z,4.49
2016-03-18T00:21:28.099Z,4.42
2016-03-18T00:22:28.024Z,4.38
2016-03-18T00:23:27.980Z,4.38
2016-03-18T00:24:27.935Z,4.41
2016-03-18T00:25:27.876Z,4.35
2016-03-18T00:26:27.847Z,4.34
2016-03-18T00:27:27.740Z,4.3
2016-03-18T00:28:27.649Z,4.38
2016-03-18T00:29:27.637Z,4.37
2016-03-18T00:30:27.373Z,4.37
2016-03-18T00:31:27.487Z,4.37
2016-03-18T00:32:27.505Z,4.31
2016-03-18T00:33:27.414Z,4.49
2016-03-18T00:34:27.307Z,4.44
2016-03-18T00:35:27.263Z,4.4
2016-03-18T00:36:27.219Z,4.38
2016-03-18T00:37:27.144Z,4.44
2016-03-18T00:38:27.099Z,4.37
2016-03-18T00:39:27.024Z,4.35
2016-03-18T00:40:26.979Z,4.4
2016-03-18T00:41:26.904Z,4.35
2016-03-18T00:42:26.843Z,4.34
2016-03-18T00:43:26.784Z,4.31
2016-03-18T00:44:26.709Z,4.3
2016-03-18T00:45:26.680Z,4.38
2016-03-18T00:46:26.604Z,4.31
2016-03-18T00:47:26.561Z,4.37
2016-03-18T00:48:26.501Z,4.37
2016-03-18T00:49:26.426Z,4.4
2016-03-18T00:50:26.381Z,4.34
2016-03-18T00:51:26.337Z,4.2
2016-03-18T00:52:26.261Z,4.24
2016-03-18T00:53:26.217Z,4.24
2016-03-18T00:54:26.158Z,4.16
2016-03-18T00:55:26.082Z,4.23
2016-03-18T00:56:26.023Z,4.17
2016-03-18T00:57:25.963Z,4.22
2016-03-18T00:58:25.887Z,4.16
2016-03-18T00:59:25.828Z,4.22
2016-03-18T01:00:25.800Z,4.16
2016-03-18T01:01:25.724Z,4.19
2016-03-18T01:02:25.664Z,4.1
2016-03-18T01:03:25.619Z,4.12
2016-03-18T01:04:25.544Z,4.16
2016-03-18T01:05:25.485Z,4.17
2016-03-18T01:06:25.143Z,4.04
2016-03-18T01:07:25.432Z,4.19
2016-03-18T01:08:25.325Z,4.19
2016-03-18T01:09:25.249Z,4.16
2016-03-18T01:10:25.206Z,4.2
2016-03-18T01:11:25.176Z,4.23
2016-03-18T01:12:25.227Z,4.24
2016-03-18T01:13:25.010Z,4.16
2016-03-18T01:14:24.967Z,4.22
2016-03-18T01:15:24.923Z,4.13
2016-03-18T01:16:24.831Z,4.06
2016-03-18T01:17:24.771Z,4.06
2016-03-18T01:18:24.742Z,4.08
2016-03-18T01:19:24.683Z,4.13
2016-03-18T01:20:24.639Z,4.08
2016-03-18T01:21:24.532Z,4.08
2016-03-18T01:22:24.503Z,4.13
2016-03-18T01:23:24.428Z,4.08
2016-03-18T01:24:24.369Z,4.08
2016-03-18T01:25:24.339Z,4.06
2016-03-18T01:26:24.249Z,3.99
2016-03-18T01:27:24.189Z,4.04
2016-03-18T01:28:24.113Z,4.08
2016-03-18T01:29:24.085Z,4.05
2016-03-18T01:30:24.040Z,4.05
2016-03-18T01:31:23.949Z,4.13
2016-03-18T01:32:23.921Z,4.08
2016-03-18T01:33:23.845Z,4.05
2016-03-18T01:34:23.786Z,4.1
2016-03-18T01:35:23.773Z,4.02
2016-03-18T01:36:23.666Z,3.98
2016-03-18T01:37:23.606Z,4.01
2016-03-18T01:38:23.546Z,4.01
2016-03-18T01:39:23.471Z,3.88
2016-03-18T01:40:23.427Z,3.88
2016-03-18T01:41:23.351Z,3.91
2016-03-18T01:42:23.323Z,3.84
2016-03-18T01:43:23.248Z,3.8
2016-03-18T01:44:23.203Z,3.68
2016-03-18T01:45:23.128Z,3.74
2016-03-18T01:46:23.067Z,3.73
2016-03-18T01:47:23.039Z,3.78
2016-03-18T01:48:23.026Z,3.81
2016-03-18T01:49:22.935Z,3.81
2016-03-18T01:50:22.860Z,3.86
2016-03-18T01:51:22.769Z,3.81
2016-03-18T01:52:22.725Z,3.83
2016-03-18T01:53:22.650Z,3.8
2016-03-18T01:54:22.605Z,3.63
2016-03-18T01:55:22.530Z,3.74
2016-03-18T01:56:22.485Z,3.62
2016-03-18T01:57:22.411Z,3.53
2016-03-18T01:58:22.350Z,3.51
2016-03-18T01:59:22.353Z,3.53
2016-03-18T02:00:22.261Z,3.53
2016-03-18T02:01:22.046Z,3.63
2016-03-18T02:02:22.111Z,3.63
2016-03-18T02:03:22.067Z,3.63
2016-03-18T02:04:22.007Z,3.69
2016-03-18T02:05:21.963Z,3.69
2016-03-18T02:06:21.872Z,3.65
2016-03-18T02:07:21.828Z,3.68
2016-03-18T02:08:21.752Z,3.62
2016-03-18T02:09:21.724Z,3.56
2016-03-18T02:10:21.648Z,3.58
2016-03-18T02:11:21.588Z,3.58
2016-03-18T02:12:21.543Z,3.55
2016-03-18T02:13:21.501Z,3.5
2016-03-18T02:14:21.393Z,3.56
2016-03-18T02:15:21.365Z,3.53
2016-03-18T02:16:21.290Z,3.62
2016-03-18T02:17:21.277Z,3.59
2016-03-18T02:18:21.185Z,3.53
2016-03-18T02:19:21.094Z,3.59
2016-03-18T02:20:21.034Z,3.59
2016-03-18T02:21:21.037Z,3.55
2016-03-18T02:22:20.946Z,3.62
2016-03-18T02:23:20.887Z,3.65
2016-03-18T02:24:20.858Z,3.59
2016-03-18T02:25:20.750Z,3.55
2016-03-18T02:26:20.706Z,3.6
2016-03-18T02:27:20.663Z,3.53
2016-03-18T02:28:20.587Z,3.63
2016-03-18T02:29:20.527Z,3.56
2016-03-18T02:30:20.467Z,3.66
2016-03-18T02:31:20.424Z,3.6
2016-03-18T02:32:20.332Z,3.62
2016-03-18T02:33:20.272Z,3.59
2016-03-18T02:34:20.213Z,3.55
2016-03-18T02:35:20.152Z,3.66
2016-03-18T02:36:20.078Z,3.59
2016-03-18T02:37:20.065Z,3.7
2016-03-18T02:38:19.974Z,3.59
2016-03-18T02:39:19.929Z,3.65
2016-03-18T02:40:23.384Z,3.62
2016-03-18T02:41:19.770Z,3.58
2016-03-18T02:42:20.586Z,3.5
2016-03-18T02:43:22.541Z,3.48
2016-03-18T02:44:19.623Z,3.56
2016-03-18T02:45:19.546Z,3.59
2016-03-18T02:46:19.471Z,3.51
2016-03-18T02:47:19.458Z,3.4
2016-03-18T02:48:19.399Z,3.4
2016-03-18T02:49:19.307Z,3.32
2016-03-18T02:50:19.264Z,3.42
2016-03-18T02:51:19.251Z,3.47
2016-03-18T02:52:19.285Z,3.47
2016-03-18T02:53:19.084Z,3.5
2016-03-18T02:54:19.056Z,3.4
2016-03-18T02:55:18.965Z,3.48
2016-03-18T02:56:18.905Z,3.36
2016-03-18T02:57:18.829Z,3.36
2016-03-18T02:58:18.769Z,3.41
2016-03-18T02:59:18.772Z,3.5
2016-03-18T03:00:18.680Z,3.47
2016-03-18T03:01:18.605Z,3.48
2016-03-18T03:02:18.530Z,3.37
2016-03-18T03:03:18.485Z,3.37
2016-03-18T03:04:18.426Z,3.47
2016-03-18T03:05:18.383Z,3.48
2016-03-18T03:06:18.291Z,3.36
2016-03-18T03:07:18.372Z,3.41
2016-03-18T03:08:18.171Z,3.37
2016-03-18T03:09:18.111Z,3.42
2016-03-18T03:10:18.067Z,3.4
2016-03-18T03:11:17.992Z,3.42
2016-03-18T03:12:17.932Z,3.34
2016-03-18T03:13:17.935Z,3.36
2016-03-18T03:14:17.812Z,3.36
2016-03-18T03:15:17.752Z,3.42
2016-03-18T03:16:17.692Z,3.31
2016-03-18T03:17:17.649Z,3.34
2016-03-18T03:18:17.589Z,3.37
2016-03-18T03:19:17.513Z,3.25
2016-03-18T03:20:17.454Z,3.19
2016-03-18T03:21:17.410Z,3.26
2016-03-18T03:22:17.396Z,3.13
2016-03-18T03:23:17.259Z,3.13
2016-03-18T03:24:17.214Z,3.13
2016-03-18T03:25:17.154Z,3.16
2016-03-18T03:26:17.126Z,3.18
2016-03-18T03:27:17.050Z,3.13
2016-03-18T03:28:16.959Z,3.1
2016-03-18T03:29:17.025Z,3.03
2016-03-18T03:30:16.964Z,2.95
2016-03-18T03:31:16.811Z,2.89
2016-03-18T03:32:16.736Z,2.93
2016-03-18T03:33:16.691Z,3.04
2016-03-18T03:34:16.617Z,3.05
2016-03-18T03:35:16.588Z,3.04
2016-03-18T03:36:16.513Z,3.01
2016-03-18T03:37:16.499Z,3.01
2016-03-18T03:38:16.393Z,3.14
2016-03-18T03:39:16.332Z,3.13
2016-03-18T03:40:16.319Z,3.08
2016-03-18T03:41:16.197Z,3.16
2016-03-18T03:42:15.966Z,3.08
2016-03-18T03:43:16.109Z,3.1
2016-03-18T03:44:16.049Z,3.13
2016-03-18T03:45:16.037Z,3.08
2016-03-18T03:46:15.790Z,3.08
2016-03-18T03:47:15.823Z,3.01
2016-03-18T03:48:15.763Z,3.03
2016-03-18T03:49:15.704Z,3.07
2016-03-18T03:50:15.660Z,3.05
2016-03-18T03:51:15.599Z,3.03
2016-03-18T03:52:15.540Z,3.1
2016-03-18T03:53:15.479Z,3.13
2016-03-18T03:54:15.404Z,3.08
2016-03-18T03:55:15.360Z,3.08
2016-03-18T03:56:15.316Z,3.11
2016-03-18T03:57:15.240Z,3.14
2016-03-18T03:58:15.164Z,3.18
2016-03-18T03:59:15.152Z,3.11
2016-03-18T04:00:15.108Z,3.11
2016-03-18T04:01:15.001Z,3.07
2016-03-18T04:02:14.942Z,3.03
2016-03-18T04:03:14.913Z,3.11
2016-03-18T04:04:14.806Z,3.07
2016-03-18T04:05:14.778Z,3.03
2016-03-18T04:06:14.702Z,3.07
2016-03-18T04:07:14.693Z,3.07
2016-03-18T04:08:14.574Z,3.08
2016-03-18T04:09:14.514Z,3.13
2016-03-18T04:10:14.454Z,3.08
2016-03-18T04:11:14.395Z,3
2016-03-18T04:12:14.397Z,3.04
2016-03-18T04:13:14.275Z,2.89
2016-03-18T04:14:14.231Z,2.95
2016-03-18T04:15:14.203Z,2.98
2016-03-18T04:16:14.080Z,2.9
2016-03-18T04:17:14.036Z,2.98
2016-03-18T04:18:13.991Z,2.93
2016-03-18T04:19:13.931Z,2.89
2016-03-18T04:20:13.872Z,2.95
2016-03-18T04:21:13.796Z,2.85
2016-03-18T04:22:13.721Z,2.92
2016-03-18T04:23:13.676Z,2.86
2016-03-18T04:24:13.647Z,2.86
2016-03-18T04:25:13.557Z,2.9
2016-03-18T04:26:13.497Z,2.89
2016-03-18T04:27:13.484Z,2.86
2016-03-18T04:28:13.222Z,2.86
2016-03-18T04:29:13.333Z,2.83
2016-03-18T04:30:13.258Z,2.87
2016-03-18T04:31:13.198Z,2.83
2016-03-18T04:32:13.154Z,2.87
2016-03-18T04:33:13.109Z,2.95
2016-03-18T04:34:13.018Z,2.93
2016-03-18T04:35:12.943Z,2.85
2016-03-18T04:36:12.915Z,2.92
2016-03-18T04:37:12.089Z,2.82
2016-03-18T04:38:12.045Z,2.9
2016-03-18T04:39:12.719Z,2.97
2016-03-18T04:40:12.738Z,2.92
2016-03-18T04:41:12.584Z,2.87
2016-03-18T04:42:12.556Z,2.89
2016-03-18T04:43:12.464Z,2.87
2016-03-18T04:44:12.421Z,2.92
2016-03-18T04:45:12.361Z,2.87
2016-03-18T04:46:12.317Z,2.92
2016-03-18T04:47:12.241Z,2.75
2016-03-18T04:48:12.166Z,2.89
2016-03-18T04:49:12.122Z,2.87
2016-03-18T04:50:12.047Z,2.8
2016-03-18T04:51:11.986Z,2.93
2016-03-18T04:52:11.942Z,2.9
2016-03-18T04:53:11.897Z,2.87
2016-03-18T04:54:11.822Z,2.79
2016-03-18T04:55:11.747Z,2.8
2016-03-18T04:56:11.688Z,2.82
2016-03-18T04:57:11.643Z,2.77
2016-03-18T04:58:11.568Z,2.85
2016-03-18T04:59:11.508Z,2.83
2016-03-18T05:00:11.449Z,2.77
2016-03-18T05:01:11.388Z,2.77
2016-03-18T05:02:11.328Z,2.69
2016-03-18T05:03:11.252Z,2.68
2016-03-18T05:04:11.224Z,2.67
2016-03-18T05:05:11.180Z,2.85
2016-03-18T05:06:11.104Z,2.75
2016-03-18T05:07:11.060Z,2.86
2016-03-18T05:08:10.969Z,2.71
2016-03-18T05:09:10.925Z,2.69
2016-03-18T05:10:10.725Z,2.75
2016-03-18T05:11:10.790Z,2.79
2016-03-18T05:12:10.745Z,2.8
2016-03-18T05:13:10.702Z,2.72
2016-03-18T05:14:10.642Z,2.75
2016-03-18T05:15:10.614Z,2.77
2016-03-18T05:16:10.492Z,2.74
2016-03-18T05:17:10.431Z,2.74
2016-03-18T05:18:10.450Z,2.74
2016-03-18T05:19:10.296Z,2.69
2016-03-18T05:20:10.283Z,2.77
2016-03-18T05:21:10.239Z,2.74
2016-03-18T05:22:10.178Z,2.72
2016-03-18T05:23:10.072Z,2.71
2016-03-18T05:24:10.013Z,2.75
2016-03-18T05:25:09.968Z,2.74
2016-03-18T05:26:09.939Z,2.72
2016-03-18T05:27:09.691Z,2.72
2016-03-18T05:28:09.835Z,2.74
2016-03-18T05:29:09.713Z,2.77
2016-03-18T05:30:09.654Z,2.69
2016-03-18T05:31:09.609Z,2.79
2016-03-18T05:32:09.534Z,2.65
2016-03-18T05:33:09.474Z,2.71
2016-03-18T05:34:09.430Z,2.77
2016-03-18T05:35:09.402Z,2.75
2016-03-18T05:36:09.296Z,2.72
2016-03-18T05:37:09.298Z,2.68
2016-03-18T05:38:09.160Z,2.65
2016-03-18T05:39:09.115Z,2.68
2016-03-18T05:40:09.055Z,2.71
2016-03-18T05:41:08.979Z,2.72
2016-03-18T05:42:08.920Z,2.75
2016-03-18T05:43:08.845Z,2.79
2016-03-18T05:44:08.848Z,2.69
2016-03-18T05:45:08.740Z,2.68
2016-03-18T05:46:08.697Z,2.62
2016-03-18T05:47:08.667Z,2.54
2016-03-18T05:48:08.562Z,2.6
2016-03-18T05:49:08.501Z,2.69
2016-03-18T05:50:08.442Z,2.65
2016-03-18T05:51:08.397Z,2.67
2016-03-18T05:52:08.353Z,2.68
2016-03-18T05:53:08.341Z,2.68
2016-03-18T05:54:08.250Z,2.69
2016-03-18T05:55:08.142Z,2.71
2016-03-18T05:56:08.130Z,2.6
2016-03-18T05:57:08.086Z,2.65
2016-03-18T05:58:07.964Z,2.65
2016-03-18T05:59:07.903Z,2.67
2016-03-18T06:00:07.843Z,2.71
2016-03-18T06:01:07.799Z,2.82
2016-03-18T06:02:07.786Z,2.83
2016-03-18T06:03:07.664Z,2.82
2016-03-18T06:04:07.604Z,2.79
2016-03-18T06:05:07.560Z,2.82
2016-03-18T06:06:07.562Z,2.93
2016-03-18T06:07:07.424Z,2.9
2016-03-18T06:08:07.318Z,2.97
2016-03-18T06:09:07.305Z,2.92
2016-03-18T06:10:07.229Z,2.97
2016-03-18T06:11:07.201Z,3.07
2016-03-18T06:12:07.126Z,3.08
2016-03-18T06:13:07.051Z,3.08
2016-03-18T06:14:07.022Z,3.11
2016-03-18T06:15:06.931Z,3.1
2016-03-18T06:16:06.903Z,3.11
2016-03-18T06:17:06.843Z,3.16
2016-03-18T06:18:06.783Z,3.13
2016-03-18T06:19:06.704Z,3.21
2016-03-18T06:20:06.644Z,3.14
2016-03-18T06:21:06.584Z,2.98
2016-03-18T06:22:06.509Z,2.92
2016-03-18T06:23:06.497Z,2.95
2016-03-18T06:24:06.405Z,2.98
2016-03-18T06:25:06.330Z,2.93
2016-03-18T06:26:06.317Z,2.97
2016-03-18T06:27:06.258Z,2.95
2016-03-18T06:28:06.166Z,2.89
2016-03-18T06:29:06.185Z,3
2016-03-18T06:30:06.077Z,2.97
2016-03-18T06:31:05.972Z,3.03
2016-03-18T06:32:05.989Z,3.04
2016-03-18T06:33:05.899Z,3.05
2016-03-18T06:34:05.838Z,3.08
2016-03-18T06:35:05.763Z,3.1
2016-03-18T06:36:05.719Z,3.18
2016-03-18T06:37:05.613Z,3.05
2016-03-18T06:38:05.599Z,3.1
2016-03-18T06:39:05.524Z,3.08
2016-03-18T06:40:05.449Z,3.14
2016-03-18T06:41:05.451Z,3.13
2016-03-18T06:42:05.329Z,3.21
2016-03-18T06:43:05.331Z,3.08
2016-03-18T06:44:05.319Z,3.22
2016-03-18T06:45:05.212Z,3.25
2016-03-18T06:46:05.106Z,3.28
2016-03-18T06:47:05.108Z,3.19
2016-03-18T06:48:04.970Z,3.16
2016-03-18T06:49:04.910Z,3.22
2016-03-18T06:50:04.913Z,3.22
2016-03-18T06:51:04.837Z,3.23
2016-03-18T06:52:04.715Z,3.22
2016-03-18T06:53:04.796Z,3.28
2016-03-18T06:54:04.612Z,3.22
2016-03-18T06:55:04.583Z,3.23
2016-03-18T06:56:04.492Z,3.34
2016-03-18T06:57:04.452Z,3.31
2016-03-18T06:58:04.365Z,3.42
2016-03-18T06:59:04.292Z,3.34
2016-03-18T07:00:04.235Z,3.45
2016-03-18T07:01:04.195Z,3.53
2016-03-18T07:02:04.239Z,3.48
2016-03-18T07:03:04.035Z,3.63
2016-03-18T07:04:03.955Z,3.59
2016-03-18T07:05:03.921Z,3.66
2016-03-18T07:06:03.858Z,3.65
2016-03-18T07:07:03.843Z,3.66
2016-03-18T07:08:03.719Z,3.76
2016-03-18T07:09:03.659Z,3.81
2016-03-18T07:10:03.628Z,3.8
2016-03-18T07:11:03.551Z,3.81
2016-03-18T07:12:03.491Z,3.87
2016-03-18T07:13:03.431Z,3.99
2016-03-18T07:14:03.371Z,3.95
2016-03-18T07:15:03.373Z,3.98
2016-03-18T07:16:03.250Z,4.01
2016-03-18T07:17:03.158Z,3.99
2016-03-18T07:18:03.161Z,4.04
2016-03-18T07:19:03.101Z,4.08
2016-03-18T07:20:03.009Z,4.14
2016-03-18T07:21:02.964Z,4.12
2016-03-18T07:22:02.937Z,4.16
2016-03-18T07:23:02.829Z,4.22
2016-03-18T07:24:02.770Z,4.2
2016-03-18T07:25:02.694Z,4.17
2016-03-18T07:26:02.697Z,4.24
2016-03-18T07:27:02.606Z,4.28
2016-03-18T07:28:02.531Z,4.28
2016-03-18T07:29:02.456Z,4.37
2016-03-18T07:30:02.473Z,4.26
2016-03-18T07:31:02.428Z,4.41
2016-03-18T07:32:02.276Z,4.34
2016-03-18T07:33:02.263Z,4.37
2016-03-18T07:34:02.172Z,4.45
2016-03-18T07:35:02.127Z,4.53
2016-03-18T07:36:02.067Z,4.53
2016-03-18T07:37:02.024Z,4.49
2016-03-18T07:38:01.964Z,4.41
2016-03-18T07:39:01.888Z,4.49
2016-03-18T07:40:01.813Z,4.55
2016-03-18T07:41:01.752Z,4.5
2016-03-18T07:42:01.740Z,4.45
2016-03-18T07:43:01.774Z,4.56
2016-03-18T07:44:01.573Z,4.6
2016-03-18T07:45:01.607Z,4.67
2016-03-18T07:46:01.501Z,4.58
2016-03-18T07:47:01.471Z,4.63
2016-03-18T07:48:01.397Z,4.66
2016-03-18T07:49:01.337Z,4.66
2016-03-18T07:50:01.246Z,4.82
2016-03-18T07:51:01.186Z,4.86
2016-03-18T07:52:01.142Z,4.78
2016-03-18T07:53:01.082Z,4.93
2016-03-18T07:54:01.100Z,4.9
2016-03-18T07:55:00.978Z,5
2016-03-18T07:56:00.918Z,4.94
2016-03-18T07:57:00.734Z,4.92
2016-03-18T07:58:00.815Z,4.99
2016-03-18T07:59:00.770Z,5.05
2016-03-18T08:00:00.678Z,5.05
2016-03-18T08:01:00.635Z,5.05
2016-03-18T08:02:00.653Z,5.05
2016-03-18T08:03:00.562Z,5.18
2016-03-18T08:04:00.440Z,5.17
2016-03-18T08:05:00.411Z,5.18
2016-03-18T08:06:00.336Z,5.23
2016-03-18T08:07:00.260Z,5.17
2016-03-18T08:08:00.264Z,5.28
2016-03-18T08:09:00.156Z,5.33
2016-03-18T08:10:00.143Z,5.44
2016-03-18T08:11:00.036Z,5.5
2016-03-18T08:12:00.039Z,5.44
2016-03-18T08:12:59.916Z,5.47
2016-03-18T08:13:59.857Z,5.41
2016-03-18T08:14:59.860Z,5.51
2016-03-18T08:15:59.784Z,5.51
2016-03-18T08:16:59.694Z,5.57
2016-03-18T08:17:59.649Z,5.56
2016-03-18T08:18:59.590Z,5.62
2016-03-18T08:19:59.498Z,5.71
2016-03-18T08:20:59.501Z,5.72
2016-03-18T08:21:59.441Z,5.68
2016-03-18T08:22:59.412Z,5.82
2016-03-18T08:23:59.321Z,5.79
2016-03-18T08:24:59.215Z,5.66
2016-03-18T08:25:59.248Z,5.68
2016-03-18T08:26:59.143Z,5.76
2016-03-18T08:27:59.067Z,5.84
2016-03-18T08:28:59.053Z,5.86
2016-03-18T08:29:58.838Z,6.01
2016-03-18T08:30:58.981Z,5.91
2016-03-18T08:31:58.093Z,5.97
2016-03-18T08:32:58.799Z,6.02
2016-03-18T08:33:58.817Z,6.08
2016-03-18T08:34:58.663Z,6.17
2016-03-18T08:35:58.636Z,6.22
2016-03-18T08:36:58.591Z,6.31
2016-03-18T08:37:58.547Z,6.35
2016-03-18T08:38:58.518Z,6.39
2016-03-18T08:39:58.443Z,6.41
2016-03-18T08:40:58.352Z,6.39
2016-03-18T08:41:58.307Z,6.54
2016-03-18T08:42:58.279Z,6.56
2016-03-18T08:43:58.188Z,6.57
2016-03-18T08:44:58.160Z,6.62
2016-03-18T08:45:58.085Z,6.63
2016-03-18T08:46:58.024Z,6.6
2016-03-18T08:47:57.995Z,6.74
2016-03-18T08:48:57.921Z,6.75
2016-03-18T08:49:57.876Z,6.78
2016-03-18T08:50:57.800Z,6.6
2016-03-18T08:51:57.772Z,6.72
2016-03-18T08:52:57.681Z,6.82
2016-03-18T08:53:57.621Z,6.78
2016-03-18T08:54:57.624Z,6.78
2016-03-18T08:55:57.548Z,6.85
2016-03-18T08:56:57.441Z,6.95
2016-03-18T08:57:57.382Z,7.05
2016-03-18T08:58:57.400Z,7.02
2016-03-18T08:59:57.402Z,7.15
2016-03-18T09:00:57.233Z,7.1
2016-03-18T09:01:57.236Z,7.14
2016-03-18T09:02:57.114Z,7.18
2016-03-18T09:03:57.101Z,7.31
2016-03-18T09:04:57.025Z,7.23
2016-03-18T09:05:56.966Z,7.24
2016-03-18T09:06:56.906Z,7.29
2016-03-18T09:07:56.846Z,7.35
2016-03-18T09:08:56.786Z,7.47
2016-03-18T09:09:56.757Z,7.42
2016-03-18T09:10:56.698Z,7.53
2016-03-18T09:11:56.607Z,7.77
2016-03-18T09:12:56.578Z,7.85
2016-03-18T09:13:56.503Z,7.95
2016-03-18T09:14:56.443Z,8.08
2016-03-18T09:15:56.446Z,8.1
2016-03-18T09:16:56.355Z,8.12
2016-03-18T09:17:56.279Z,8.3
2016-03-18T09:18:56.282Z,8.28
2016-03-18T09:19:56.221Z,8.45
2016-03-18T09:20:56.209Z,8.6
2016-03-18T09:21:56.071Z,8.63
2016-03-18T09:22:56.059Z,8.63
2016-03-18T09:23:55.982Z,8.94
2016-03-18T09:24:55.939Z,8.99
2016-03-18T09:25:55.832Z,9.22
2016-03-18T09:26:55.819Z,9.32
2016-03-18T09:27:55.806Z,9.44
2016-03-18T09:28:55.668Z,9.69
2016-03-18T09:29:55.703Z,9.69
2016-03-18T09:30:55.611Z,9.79
2016-03-18T09:31:55.504Z,9.92
2016-03-18T09:32:55.492Z,10.2
2016-03-18T09:33:55.431Z,10.3
2016-03-18T09:34:55.372Z,10.34
2016-03-18T09:35:55.374Z,10.41
2016-03-18T09:36:55.268Z,10.57
2016-03-18T09:37:55.224Z,10.69
2016-03-18T09:38:55.227Z,10.87
2016-03-18T09:39:55.072Z,10.87
2016-03-18T09:40:55.060Z,10.97
2016-03-18T09:41:55.016Z,11.14
2016-03-18T09:42:54.987Z,11.23
2016-03-18T09:43:54.849Z,11.43
2016-03-18T09:44:54.836Z,11.47
2016-03-18T09:45:54.791Z,11.57
2016-03-18T09:46:54.749Z,11.73
2016-03-18T09:47:54.813Z,11.8
2016-03-18T09:48:54.690Z,11.91
2016-03-18T09:49:54.585Z,11.95
2016-03-18T09:50:54.571Z,12.2
2016-03-18T09:51:54.495Z,12.04
2016-03-18T09:52:54.436Z,12.29
2016-03-18T09:53:54.438Z,12.35
2016-03-18T09:54:54.332Z,12.4
2016-03-18T09:55:54.351Z,12.54
2016-03-18T09:56:54.228Z,12.6
2016-03-18T09:57:54.184Z,12.67
2016-03-18T09:58:54.139Z,12.73
2016-03-18T09:59:54.204Z,12.78
2016-03-18T10:00:54.003Z,12.62
2016-03-18T10:01:53.944Z,12.78
2016-03-18T10:02:53.931Z,12.94
2016-03-18T10:03:53.919Z,13
2016-03-18T10:04:53.780Z,13.05
2016-03-18T10:05:53.753Z,13.09
2016-03-18T10:06:53.692Z,13.12
2016-03-18T10:07:53.632Z,13.18
2016-03-18T10:08:53.604Z,13.3
2016-03-18T10:09:53.560Z,13.39
2016-03-18T10:10:53.500Z,13.47
2016-03-18T10:11:53.503Z,13.49
2016-03-18T10:12:53.427Z,13.54
2016-03-18T10:13:53.367Z,13.63
2016-03-18T10:14:53.307Z,13.71
2016-03-18T10:15:53.247Z,13.75
2016-03-18T10:16:53.219Z,13.79
2016-03-18T10:17:53.159Z,13.87
2016-03-18T10:18:53.100Z,14.03
2016-03-18T10:19:53.024Z,13.99
2016-03-18T10:20:53.011Z,14.1
2016-03-18T10:21:52.967Z,14.26
2016-03-18T10:22:52.891Z,14.29
2016-03-18T10:23:52.893Z,14.29
2016-03-18T10:24:52.803Z,14.29
2016-03-18T10:25:52.774Z,14.4
2016-03-18T10:26:52.776Z,14.48
2016-03-18T10:27:52.687Z,14.58
2016-03-18T10:28:52.642Z,14.62
2016-03-18T10:29:52.567Z,14.78
2016-03-18T10:30:52.475Z,14.72
2016-03-18T10:31:52.462Z,14.77
2016-03-18T10:32:52.449Z,14.69
2016-03-18T10:33:52.390Z,14.79
2016-03-18T10:34:52.299Z,14.77
2016-03-18T10:35:52.286Z,14.91
2016-03-18T10:36:52.242Z,14.99
2016-03-18T10:37:52.150Z,15
2016-03-18T10:38:52.138Z,14.99
2016-03-18T10:39:52.062Z,15.09
2016-03-18T10:40:52.033Z,15.15
2016-03-18T10:41:52.021Z,15.19
2016-03-18T10:42:51.930Z,15.27
2016-03-18T10:43:51.886Z,15.27
2016-03-18T10:44:51.857Z,15.35
2016-03-18T10:45:51.782Z,15.46
2016-03-18T10:46:51.721Z,15.44
2016-03-18T10:47:51.662Z,15.49
2016-03-18T10:48:51.602Z,15.61
2016-03-18T10:49:51.557Z,15.64
2016-03-18T10:50:51.530Z,15.68
2016-03-18T10:51:51.641Z,15.84
2016-03-18T10:52:51.440Z,15.8
2016-03-18T10:53:51.397Z,15.79
2016-03-18T10:54:51.352Z,16.01
2016-03-18T10:55:51.309Z,15.97
2016-03-18T10:56:51.249Z,16.01
2016-03-18T10:57:51.220Z,16.01
2016-03-18T10:58:51.129Z,15.97
2016-03-18T10:59:51.085Z,16.08
2016-03-18T11:00:51.025Z,16.16
2016-03-18T11:01:50.965Z,16.26
2016-03-18T11:02:50.921Z,16.23
2016-03-18T11:03:50.861Z,16.33
2016-03-18T11:04:50.879Z,16.43
2016-03-18T11:05:50.789Z,16.41
2016-03-18T11:06:50.681Z,16.43
2016-03-18T11:07:50.653Z,16.54
2016-03-18T11:08:50.625Z,16.53
2016-03-18T11:09:50.611Z,16.61
2016-03-18T11:10:50.552Z,16.65
2016-03-18T11:11:50.508Z,16.69
2016-03-18T11:12:50.525Z,16.58
2016-03-18T11:13:50.357Z,16.84
2016-03-18T11:14:50.344Z,16.86
2016-03-18T11:15:50.300Z,16.83
2016-03-18T11:16:50.208Z,16.87
2016-03-18T11:17:50.180Z,16.79
2016-03-18T11:18:50.167Z,16.79
2016-03-18T11:19:50.123Z,16.79
2016-03-18T11:20:50.016Z,16.87
2016-03-18T11:21:49.972Z,17.05
2016-03-18T11:22:49.960Z,16.97
2016-03-18T11:23:49.884Z,16.99
2016-03-18T11:24:49.840Z,17.02
2016-03-18T11:25:49.764Z,17.06
2016-03-18T11:26:49.735Z,17.11
2016-03-18T11:27:49.691Z,17.2
2016-03-18T11:28:49.679Z,17.39
2016-03-18T11:29:49.618Z,17.39
2016-03-18T11:30:49.573Z,17.2
2016-03-18T11:31:49.515Z,17.31
2016-03-18T11:32:49.454Z,17.41
2016-03-18T11:33:49.426Z,17.31
2016-03-18T11:34:49.350Z,17.46
2016-03-18T11:35:49.306Z,17.39
2016-03-18T11:36:49.247Z,17.38
2016-03-18T11:37:49.233Z,17.42
2016-03-18T11:38:49.158Z,17.48
2016-03-18T11:39:49.098Z,17.48
2016-03-18T11:40:49.039Z,17.51
2016-03-18T11:41:49.041Z,17.6
2016-03-18T11:42:48.950Z,17.6
2016-03-18T11:43:48.953Z,17.56
2016-03-18T11:44:48.878Z,17.8
2016-03-18T11:45:48.833Z,17.65
2016-03-18T11:46:48.789Z,17.59
2016-03-18T11:47:48.714Z,17.59
2016-03-18T11:48:48.685Z,17.63
2016-03-18T11:49:48.672Z,17.6
2016-03-18T11:50:48.565Z,17.71
2016-03-18T11:51:48.538Z,17.85
2016-03-18T11:52:48.477Z,17.78
2016-03-18T11:53:48.479Z,17.85
2016-03-18T11:54:48.373Z,17.76
2016-03-18T11:55:48.376Z,17.68
2016-03-18T11:56:48.316Z,17.87
2016-03-18T11:57:48.262Z,17.89
2016-03-18T11:58:48.170Z,17.9
2016-03-18T11:59:48.173Z,17.86
2016-03-18T12:00:48.144Z,17.86
2016-03-18T12:01:48.069Z,17.83
2016-03-18T12:02:48.009Z,17.8
2016-03-18T12:03:47.980Z,17.78
2016-03-18T12:04:47.905Z,17.68
2016-03-18T12:05:47.892Z,17.68
2016-03-18T12:06:47.848Z,17.76
2016-03-18T12:07:47.757Z,17.74
2016-03-18T12:08:47.728Z,17.79
2016-03-18T12:09:47.684Z,17.76
2016-03-18T12:10:47.655Z,17.9
2016-03-18T12:11:47.564Z,17.92
2016-03-18T12:12:47.520Z,17.92
2016-03-18T12:13:47.476Z,17.87
2016-03-18T12:14:47.432Z,17.85
2016-03-18T12:15:47.371Z,17.94
2016-03-18T12:16:47.344Z,17.89
2016-03-18T12:17:47.283Z,17.92
2016-03-18T12:18:47.333Z,17.98
2016-03-18T12:19:47.211Z,17.9
2016-03-18T12:20:47.151Z,17.9
2016-03-18T12:21:47.091Z,18.01
2016-03-18T12:22:47.063Z,18
2016-03-18T12:23:47.035Z,18.01
2016-03-18T12:24:46.943Z,17.94
2016-03-18T12:25:46.915Z,18.04
2016-03-18T12:26:46.870Z,17.64
2016-03-18T12:27:46.810Z,17.87
2016-03-18T12:28:46.829Z,17.74
2016-03-18T12:29:46.706Z,17.86
2016-03-18T12:30:46.678Z,17.92
2016-03-18T12:31:46.665Z,17.95
2016-03-18T12:32:46.668Z,17.87
2016-03-18T12:33:46.545Z,17.87
2016-03-18T12:34:46.517Z,17.87
2016-03-18T12:35:46.457Z,17.9
2016-03-18T12:36:46.382Z,17.89
2016-03-18T12:37:46.337Z,17.87
2016-03-18T12:38:46.356Z,17.92
2016-03-18T12:39:46.264Z,17.74
2016-03-18T12:40:46.189Z,17.87
2016-03-18T12:41:46.239Z,17.9
2016-03-18T12:42:46.133Z,17.87
2016-03-18T12:43:46.089Z,17.89
2016-03-18T12:44:46.075Z,17.85
2016-03-18T12:45:45.984Z,17.74
2016-03-18T12:46:45.940Z,17.76
2016-03-18T12:47:45.896Z,17.74
2016-03-18T12:48:45.852Z,17.67
2016-03-18T12:49:45.823Z,17.57
2016-03-18T12:50:45.732Z,17.57
2016-03-18T12:51:45.704Z,17.46
2016-03-18T12:52:45.675Z,17.49
2016-03-18T12:53:45.584Z,17.52
2016-03-18T12:54:45.555Z,17.54
2016-03-18T12:55:45.495Z,17.52
2016-03-18T12:56:45.451Z,17.54
2016-03-18T12:57:45.407Z,17.54
2016-03-18T12:58:45.363Z,17.39
2016-03-18T12:59:45.303Z,17.41
2016-03-18T13:00:45.259Z,17.04
2016-03-18T13:01:45.230Z,17.08
2016-03-18T13:02:45.186Z,17.22
2016-03-18T13:03:45.141Z,17.24
2016-03-18T13:04:45.067Z,17.16
2016-03-18T13:05:45.069Z,17.19
2016-03-18T13:06:44.962Z,17.09
2016-03-18T13:07:44.950Z,16.96
2016-03-18T13:08:44.874Z,17.01
2016-03-18T13:09:44.909Z,17.19
2016-03-18T13:10:44.787Z,17.02
2016-03-18T13:11:44.742Z,17.01
2016-03-18T13:12:44.729Z,17.06
2016-03-18T13:13:44.701Z,17.09